Inicio METAR Ruta Wind Satelite

Informe Meteorológico

Fecha: 2023/03/22 05:11:04 Local
2023.03.22 10:11 UTC


Operación:MVFR
SKUI 221000Z NIL =

SKUI 212300Z 30006KT 9999 SCT040 31/24 Q1006 RMK A2973
SKUI 212200Z 00000KT 9999 SCT040 32/24 Q1006 RMK A2972
SKUI 212100Z 12003KT 9999 BKN035 32/24 Q1006 RMK A2973
SKUI 212000Z 04004KT 9999 BKN030 31/24 Q1007 RMK A2975
SKUI 211900Z 00000KT 9999 BKN030 32/24 Q1008 RMK A297900